sensor_id;sensor_type;location;lat;lon;timestamp;temperature;humidity
6379;DHT22;3222;48.858;10.128;2023-09-19T00:00:38;18.40;99.90
6379;DHT22;3222;48.858;10.128;2023-09-19T00:03:06;18.40;99.90
6379;DHT22;3222;48.858;10.128;2023-09-19T00:05:34;18.40;99.90
6379;DHT22;3222;48.858;10.128;2023-09-19T00:08:01;18.30;99.90
6379;DHT22;3222;48.858;10.128;2023-09-19T00:10:32;18.30;99.90
6379;DHT22;3222;48.858;10.128;2023-09-19T00:13:01;18.40;99.90
6379;DHT22;3222;48.858;10.128;2023-09-19T00:15:35;18.30;99.90
6379;DHT22;3222;48.858;10.128;2023-09-19T00:18:01;18.30;99.90
6379;DHT22;3222;48.858;10.128;2023-09-19T00:20:27;18.30;99.90
6379;DHT22;3222;48.858;10.128;2023-09-19T00:22:55;18.30;99.90
6379;DHT22;3222;48.858;10.128;2023-09-19T00:25:21;18.30;99.90
6379;DHT22;3222;48.858;10.128;2023-09-19T00:27:47;18.30;99.90
6379;DHT22;3222;48.858;10.128;2023-09-19T00:30:15;18.30;99.90
6379;DHT22;3222;48.858;10.128;2023-09-19T00:32:42;18.30;99.90
6379;DHT22;3222;48.858;10.128;2023-09-19T00:35:08;18.30;99.90
6379;DHT22;3222;48.858;10.128;2023-09-19T00:37:37;18.20;99.90
6379;DHT22;3222;48.858;10.128;2023-09-19T00:40:09;18.10;99.90
6379;DHT22;3222;48.858;10.128;2023-09-19T00:42:41;18.20;99.90
6379;DHT22;3222;48.858;10.128;2023-09-19T00:45:08;18.10;99.90
6379;DHT22;3222;48.858;10.128;2023-09-19T00:47:36;18.10;99.90
6379;DHT22;3222;48.858;10.128;2023-09-19T00:50:04;18.10;99.90
6379;DHT22;3222;48.858;10.128;2023-09-19T00:52:33;18.10;99.90
6379;DHT22;3222;48.858;10.128;2023-09-19T00:54:59;18.10;99.90
6379;DHT22;3222;48.858;10.128;2023-09-19T00:57:25;18.20;99.90
6379;DHT22;3222;48.858;10.128;2023-09-19T00:59:53;18.20;99.90
6379;DHT22;3222;48.858;10.128;2023-09-19T01:02:20;18.10;99.90
6379;DHT22;3222;48.858;10.128;2023-09-19T01:04:47;18.20;99.90
6379;DHT22;3222;48.858;10.128;2023-09-19T01:07:13;18.20;99.90
6379;DHT22;3222;48.858;10.128;2023-09-19T01:09:41;18.20;99.90
6379;DHT22;3222;48.858;10.128;2023-09-19T01:12:08;18.20;99.90
6379;DHT22;3222;48.858;10.128;2023-09-19T01:17:14;18.20;99.90
6379;DHT22;3222;48.858;10.128;2023-09-19T01:30:35;18.20;99.90
6379;DHT22;3222;48.858;10.128;2023-09-19T01:33:06;18.20;99.90
6379;DHT22;3222;48.858;10.128;2023-09-19T01:35:32;18.10;99.90
6379;DHT22;3222;48.858;10.128;2023-09-19T01:37:59;18.10;99.90
6379;DHT22;3222;48.858;10.128;2023-09-19T01:40:25;18.10;99.90
6379;DHT22;3222;48.858;10.128;2023-09-19T01:46:24;18.20;99.90
6379;DHT22;3222;48.858;10.128;2023-09-19T01:51:53;18.00;99.90
6379;DHT22;3222;48.858;10.128;2023-09-19T01:54:33;18.00;99.90
6379;DHT22;3222;48.858;10.128;2023-09-19T01:57:05;18.00;99.90
6379;DHT22;3222;48.858;10.128;2023-09-19T01:59:50;18.00;99.90
6379;DHT22;3222;48.858;10.128;2023-09-19T02:02:18;17.90;99.90
6379;DHT22;3222;48.858;10.128;2023-09-19T02:04:46;17.80;99.90
6379;DHT22;3222;48.858;10.128;2023-09-19T02:07:14;17.90;99.90
6379;DHT22;3222;48.858;10.128;2023-09-19T02:09:40;18.00;99.90
6379;DHT22;3222;48.858;10.128;2023-09-19T02:12:09;17.90;99.90
6379;DHT22;3222;48.858;10.128;2023-09-19T02:14:35;17.90;99.90
6379;DHT22;3222;48.858;10.128;2023-09-19T02:17:03;18.00;99.90
6379;DHT22;3222;48.858;10.128;2023-09-19T02:19:33;18.00;99.90
6379;DHT22;3222;48.858;10.128;2023-09-19T02:22:00;17.90;99.90
6379;DHT22;3222;48.858;10.128;2023-09-19T02:24:28;17.90;99.90
6379;DHT22;3222;48.858;10.128;2023-09-19T02:26:55;17.80;99.90
6379;DHT22;3222;48.858;10.128;2023-09-19T02:29:21;17.80;99.90
6379;DHT22;3222;48.858;10.128;2023-09-19T02:31:47;17.90;99.90
6379;DHT22;3222;48.858;10.128;2023-09-19T02:34:14;17.90;99.90
6379;DHT22;3222;48.858;10.128;2023-09-19T02:36:42;18.00;99.90
6379;DHT22;3222;48.858;10.128;2023-09-19T02:39:10;18.00;99.90
6379;DHT22;3222;48.858;10.128;2023-09-19T02:41:36;18.00;99.90
6379;DHT22;3222;48.858;10.128;2023-09-19T02:44:04;18.00;99.90
6379;DHT22;3222;48.858;10.128;2023-09-19T02:46:34;18.00;99.90
6379;DHT22;3222;48.858;10.128;2023-09-19T02:49:03;18.00;99.90
6379;DHT22;3222;48.858;10.128;2023-09-19T02:51:32;17.90;99.90
6379;DHT22;3222;48.858;10.128;2023-09-19T02:53:59;17.90;99.90
6379;DHT22;3222;48.858;10.128;2023-09-19T02:56:25;17.90;99.90
6379;DHT22;3222;48.858;10.128;2023-09-19T02:58:51;17.80;99.90
6379;DHT22;3222;48.858;10.128;2023-09-19T03:01:17;17.90;99.90
6379;DHT22;3222;48.858;10.128;2023-09-19T03:03:44;17.90;99.90
6379;DHT22;3222;48.858;10.128;2023-09-19T03:06:10;17.80;99.90
6379;DHT22;3222;48.858;10.128;2023-09-19T03:08:40;17.90;99.90
6379;DHT22;3222;48.858;10.128;2023-09-19T03:11:08;17.90;99.90
6379;DHT22;3222;48.858;10.128;2023-09-19T03:13:39;17.80;99.90
6379;DHT22;3222;48.858;10.128;2023-09-19T03:16:05;17.80;99.90
6379;DHT22;3222;48.858;10.128;2023-09-19T03:18:33;17.70;99.90
6379;DHT22;3222;48.858;10.128;2023-09-19T03:20:59;17.80;99.90
6379;DHT22;3222;48.858;10.128;2023-09-19T03:23:26;17.70;99.90
6379;DHT22;3222;48.858;10.128;2023-09-19T03:25:53;17.80;99.90
6379;DHT22;3222;48.858;10.128;2023-09-19T03:28:20;17.80;99.90
6379;DHT22;3222;48.858;10.128;2023-09-19T03:31:06;17.80;99.90
6379;DHT22;3222;48.858;10.128;2023-09-19T03:33:34;17.70;99.90
6379;DHT22;3222;48.858;10.128;2023-09-19T03:36:01;17.80;99.90
6379;DHT22;3222;48.858;10.128;2023-09-19T03:38:31;17.70;99.90
6379;DHT22;3222;48.858;10.128;2023-09-19T03:40:58;17.70;99.90
6379;DHT22;3222;48.858;10.128;2023-09-19T03:43:24;17.70;99.90
6379;DHT22;3222;48.858;10.128;2023-09-19T03:45:49;17.70;99.90
6379;DHT22;3222;48.858;10.128;2023-09-19T03:48:17;17.70;99.90
6379;DHT22;3222;48.858;10.128;2023-09-19T03:50:43;17.80;99.90
6379;DHT22;3222;48.858;10.128;2023-09-19T03:53:11;17.70;99.90
6379;DHT22;3222;48.858;10.128;2023-09-19T03:55:37;17.70;99.90
6379;DHT22;3222;48.858;10.128;2023-09-19T03:58:05;17.70;99.90
6379;DHT22;3222;48.858;10.128;2023-09-19T04:00:31;17.60;99.90
6379;DHT22;3222;48.858;10.128;2023-09-19T04:02:58;17.60;99.90
6379;DHT22;3222;48.858;10.128;2023-09-19T04:05:24;17.60;99.90
6379;DHT22;3222;48.858;10.128;2023-09-19T04:07:50;17.60;99.90
6379;DHT22;3222;48.858;10.128;2023-09-19T04:10:16;17.60;99.90
6379;DHT22;3222;48.858;10.128;2023-09-19T04:12:55;17.60;99.90
6379;DHT22;3222;48.858;10.128;2023-09-19T04:15:23;17.60;99.90
6379;DHT22;3222;48.858;10.128;2023-09-19T04:17:50;17.60;99.90
6379;DHT22;3222;48.858;10.128;2023-09-19T04:20:17;17.70;99.90
6379;DHT22;3222;48.858;10.128;2023-09-19T04:22:45;17.70;99.90
6379;DHT22;3222;48.858;10.128;2023-09-19T04:25:11;17.70;99.90
6379;DHT22;3222;48.858;10.128;2023-09-19T04:27:37;17.70;99.90
6379;DHT22;3222;48.858;10.128;2023-09-19T04:30:04;17.60;99.90
6379;DHT22;3222;48.858;10.128;2023-09-19T04:32:35;17.60;99.90
6379;DHT22;3222;48.858;10.128;2023-09-19T04:35:02;17.70;99.90
6379;DHT22;3222;48.858;10.128;2023-09-19T04:37:31;17.60;99.90
6379;DHT22;3222;48.858;10.128;2023-09-19T04:39:57;17.60;99.90
6379;DHT22;3222;48.858;10.128;2023-09-19T04:42:23;17.60;99.90
6379;DHT22;3222;48.858;10.128;2023-09-19T04:44:50;17.60;99.90
6379;DHT22;3222;48.858;10.128;2023-09-19T04:47:19;17.70;99.90
6379;DHT22;3222;48.858;10.128;2023-09-19T04:49:45;17.50;99.90
6379;DHT22;3222;48.858;10.128;2023-09-19T04:52:10;17.60;99.90
6379;DHT22;3222;48.858;10.128;2023-09-19T04:54:36;17.60;99.90
6379;DHT22;3222;48.858;10.128;2023-09-19T04:57:03;17.60;99.90
6379;DHT22;3222;48.858;10.128;2023-09-19T04:59:31;17.60;99.90
6379;DHT22;3222;48.858;10.128;2023-09-19T05:01:56;17.70;99.90
6379;DHT22;3222;48.858;10.128;2023-09-19T05:04:22;17.70;99.90
6379;DHT22;3222;48.858;10.128;2023-09-19T05:06:48;17.60;99.90
6379;DHT22;3222;48.858;10.128;2023-09-19T05:09:13;17.60;99.90
6379;DHT22;3222;48.858;10.128;2023-09-19T05:11:41;17.50;99.90
6379;DHT22;3222;48.858;10.128;2023-09-19T05:14:06;17.60;99.90
6379;DHT22;3222;48.858;10.128;2023-09-19T05:16:32;17.60;99.90
6379;DHT22;3222;48.858;10.128;2023-09-19T05:18:58;17.60;99.90
6379;DHT22;3222;48.858;10.128;2023-09-19T05:21:26;17.60;99.90
6379;DHT22;3222;48.858;10.128;2023-09-19T05:23:54;17.60;99.90
6379;DHT22;3222;48.858;10.128;2023-09-19T05:26:21;17.70;99.90
6379;DHT22;3222;48.858;10.128;2023-09-19T05:28:46;17.60;99.90
6379;DHT22;3222;48.858;10.128;2023-09-19T05:31:13;17.60;99.90
6379;DHT22;3222;48.858;10.128;2023-09-19T05:33:40;17.60;99.90
6379;DHT22;3222;48.858;10.128;2023-09-19T05:36:06;17.50;99.90
6379;DHT22;3222;48.858;10.128;2023-09-19T05:38:35;17.60;99.90
6379;DHT22;3222;48.858;10.128;2023-09-19T05:41:00;17.50;99.90
6379;DHT22;3222;48.858;10.128;2023-09-19T05:43:27;17.50;99.90
6379;DHT22;3222;48.858;10.128;2023-09-19T05:45:53;17.60;99.90
6379;DHT22;3222;48.858;10.128;2023-09-19T05:48:22;17.60;99.90
6379;DHT22;3222;48.858;10.128;2023-09-19T05:50:48;17.50;99.90
6379;DHT22;3222;48.858;10.128;2023-09-19T05:53:14;17.60;99.90
6379;DHT22;3222;48.858;10.128;2023-09-19T05:55:40;17.60;99.90
6379;DHT22;3222;48.858;10.128;2023-09-19T05:58:06;17.60;99.90
6379;DHT22;3222;48.858;10.128;2023-09-19T06:00:32;17.50;99.90
6379;DHT22;3222;48.858;10.128;2023-09-19T06:02:59;17.60;99.90
6379;DHT22;3222;48.858;10.128;2023-09-19T06:05:26;17.60;99.90
6379;DHT22;3222;48.858;10.128;2023-09-19T06:07:52;17.60;99.90
6379;DHT22;3222;48.858;10.128;2023-09-19T06:10:18;17.60;99.90
6379;DHT22;3222;48.858;10.128;2023-09-19T06:12:46;17.60;99.90
6379;DHT22;3222;48.858;10.128;2023-09-19T06:15:15;17.50;99.90
6379;DHT22;3222;48.858;10.128;2023-09-19T06:17:52;17.40;99.90
6379;DHT22;3222;48.858;10.128;2023-09-19T06:20:20;17.40;99.90
6379;DHT22;3222;48.858;10.128;2023-09-19T06:22:48;17.50;99.90
6379;DHT22;3222;48.858;10.128;2023-09-19T06:25:15;17.50;99.90
6379;DHT22;3222;48.858;10.128;2023-09-19T06:27:48;17.50;99.90
6379;DHT22;3222;48.858;10.128;2023-09-19T06:30:14;17.50;99.90
6379;DHT22;3222;48.858;10.128;2023-09-19T06:32:41;17.50;99.90
6379;DHT22;3222;48.858;10.128;2023-09-19T06:35:14;17.50;99.90
6379;DHT22;3222;48.858;10.128;2023-09-19T06:37:41;17.50;99.90
6379;DHT22;3222;48.858;10.128;2023-09-19T06:40:08;17.50;99.90
6379;DHT22;3222;48.858;10.128;2023-09-19T06:42:40;17.60;99.90
6379;DHT22;3222;48.858;10.128;2023-09-19T06:45:06;17.70;99.90
6379;DHT22;3222;48.858;10.128;2023-09-19T06:47:32;17.60;99.90
6379;DHT22;3222;48.858;10.128;2023-09-19T06:49:58;17.60;99.90
6379;DHT22;3222;48.858;10.128;2023-09-19T06:52:23;17.60;99.90
6379;DHT22;3222;48.858;10.128;2023-09-19T06:54:49;17.60;99.90
6379;DHT22;3222;48.858;10.128;2023-09-19T06:57:16;17.50;99.90
6379;DHT22;3222;48.858;10.128;2023-09-19T06:59:42;17.50;99.90
6379;DHT22;3222;48.858;10.128;2023-09-19T07:02:07;17.60;99.90
6379;DHT22;3222;48.858;10.128;2023-09-19T07:04:33;17.50;99.90
6379;DHT22;3222;48.858;10.128;2023-09-19T07:06:59;17.50;99.90
6379;DHT22;3222;48.858;10.128;2023-09-19T07:09:25;17.50;99.90
6379;DHT22;3222;48.858;10.128;2023-09-19T07:11:53;17.60;99.90
6379;DHT22;3222;48.858;10.128;2023-09-19T07:14:18;17.60;99.90
6379;DHT22;3222;48.858;10.128;2023-09-19T07:16:44;17.50;99.90
6379;DHT22;3222;48.858;10.128;2023-09-19T07:19:10;17.50;99.90
6379;DHT22;3222;48.858;10.128;2023-09-19T07:21:36;17.40;99.90
6379;DHT22;3222;48.858;10.128;2023-09-19T07:24:04;17.40;99.90
6379;DHT22;3222;48.858;10.128;2023-09-19T07:26:30;17.40;99.90
6379;DHT22;3222;48.858;10.128;2023-09-19T07:28:56;17.30;99.90
6379;DHT22;3222;48.858;10.128;2023-09-19T07:31:23;17.30;99.90
6379;DHT22;3222;48.858;10.128;2023-09-19T07:33:49;17.40;99.90
6379;DHT22;3222;48.858;10.128;2023-09-19T07:36:15;17.40;99.90
6379;DHT22;3222;48.858;10.128;2023-09-19T07:38:41;17.30;99.90
6379;DHT22;3222;48.858;10.128;2023-09-19T07:41:08;17.20;99.90
6379;DHT22;3222;48.858;10.128;2023-09-19T07:43:36;17.30;99.90
6379;DHT22;3222;48.858;10.128;2023-09-19T07:46:07;17.30;99.90
6379;DHT22;3222;48.858;10.128;2023-09-19T07:48:35;17.20;99.90
6379;DHT22;3222;48.858;10.128;2023-09-19T07:51:05;17.20;99.90
6379;DHT22;3222;48.858;10.128;2023-09-19T07:53:32;17.20;99.90
6379;DHT22;3222;48.858;10.128;2023-09-19T07:56:07;17.30;99.90
6379;DHT22;3222;48.858;10.128;2023-09-19T07:58:33;17.30;99.90
6379;DHT22;3222;48.858;10.128;2023-09-19T08:01:06;17.30;99.90
6379;DHT22;3222;48.858;10.128;2023-09-19T08:03:33;17.20;99.90
6379;DHT22;3222;48.858;10.128;2023-09-19T08:05:59;17.30;99.90
6379;DHT22;3222;48.858;10.128;2023-09-19T08:08:27;17.30;99.90
6379;DHT22;3222;48.858;10.128;2023-09-19T08:10:56;17.20;99.90
6379;DHT22;3222;48.858;10.128;2023-09-19T08:13:25;17.20;99.90
6379;DHT22;3222;48.858;10.128;2023-09-19T08:15:51;17.20;99.90
6379;DHT22;3222;48.858;10.128;2023-09-19T08:18:20;17.10;99.90
6379;DHT22;3222;48.858;10.128;2023-09-19T08:20:52;17.30;99.90
6379;DHT22;3222;48.858;10.128;2023-09-19T08:23:18;17.30;99.90
6379;DHT22;3222;48.858;10.128;2023-09-19T08:25:46;17.30;99.90
6379;DHT22;3222;48.858;10.128;2023-09-19T08:28:11;17.20;99.90
6379;DHT22;3222;48.858;10.128;2023-09-19T08:30:39;17.20;99.90
6379;DHT22;3222;48.858;10.128;2023-09-19T08:33:06;17.30;99.90
6379;DHT22;3222;48.858;10.128;2023-09-19T08:35:33;17.30;99.90
6379;DHT22;3222;48.858;10.128;2023-09-19T08:37:59;17.30;99.90
6379;DHT22;3222;48.858;10.128;2023-09-19T08:40:30;17.40;99.90
6379;DHT22;3222;48.858;10.128;2023-09-19T08:42:59;17.40;99.90
6379;DHT22;3222;48.858;10.128;2023-09-19T08:45:26;17.40;99.90
6379;DHT22;3222;48.858;10.128;2023-09-19T08:50:58;17.40;99.90
6379;DHT22;3222;48.858;10.128;2023-09-19T08:56:17;17.40;99.90
6379;DHT22;3222;48.858;10.128;2023-09-19T08:58:53;17.50;99.90
6379;DHT22;3222;48.858;10.128;2023-09-19T09:01:21;17.40;99.90
6379;DHT22;3222;48.858;10.128;2023-09-19T09:03:52;17.40;99.90
6379;DHT22;3222;48.858;10.128;2023-09-19T09:06:20;17.40;99.90
6379;DHT22;3222;48.858;10.128;2023-09-19T09:08:46;17.50;99.90
6379;DHT22;3222;48.858;10.128;2023-09-19T09:11:14;17.50;99.90
6379;DHT22;3222;48.858;10.128;2023-09-19T09:13:42;17.50;99.90
6379;DHT22;3222;48.858;10.128;2023-09-19T09:16:08;17.40;99.90
6379;DHT22;3222;48.858;10.128;2023-09-19T09:18:35;17.50;99.90
6379;DHT22;3222;48.858;10.128;2023-09-19T09:21:01;17.50;99.90
6379;DHT22;3222;48.858;10.128;2023-09-19T09:23:27;17.50;99.90
6379;DHT22;3222;48.858;10.128;2023-09-19T09:25:56;17.40;99.90
6379;DHT22;3222;48.858;10.128;2023-09-19T09:28:32;17.50;99.90
6379;DHT22;3222;48.858;10.128;2023-09-19T09:30:59;17.40;99.90
6379;DHT22;3222;48.858;10.128;2023-09-19T09:33:25;17.40;99.90
6379;DHT22;3222;48.858;10.128;2023-09-19T09:35:55;17.50;99.90
6379;DHT22;3222;48.858;10.128;2023-09-19T09:38:47;17.50;99.90
6379;DHT22;3222;48.858;10.128;2023-09-19T09:41:15;17.50;99.90
6379;DHT22;3222;48.858;10.128;2023-09-19T09:43:53;17.40;99.90
6379;DHT22;3222;48.858;10.128;2023-09-19T09:46:19;17.50;99.90
6379;DHT22;3222;48.858;10.128;2023-09-19T09:51:41;17.50;99.90
6379;DHT22;3222;48.858;10.128;2023-09-19T09:54:24;17.50;99.90
6379;DHT22;3222;48.858;10.128;2023-09-19T09:59:21;17.50;99.90
6379;DHT22;3222;48.858;10.128;2023-09-19T10:01:49;17.50;99.90
6379;DHT22;3222;48.858;10.128;2023-09-19T10:04:28;17.50;99.90
6379;DHT22;3222;48.858;10.128;2023-09-19T10:07:01;17.50;99.90
6379;DHT22;3222;48.858;10.128;2023-09-19T10:09:44;17.50;99.90
6379;DHT22;3222;48.858;10.128;2023-09-19T10:12:13;17.50;99.90
6379;DHT22;3222;48.858;10.128;2023-09-19T10:14:41;17.50;99.90
6379;DHT22;3222;48.858;10.128;2023-09-19T10:17:10;17.60;99.90
6379;DHT22;3222;48.858;10.128;2023-09-19T10:19:54;17.60;99.90
6379;DHT22;3222;48.858;10.128;2023-09-19T10:22:23;17.60;99.90
6379;DHT22;3222;48.858;10.128;2023-09-19T10:24:50;17.60;99.90
6379;DHT22;3222;48.858;10.128;2023-09-19T10:27:19;17.70;99.90
6379;DHT22;3222;48.858;10.128;2023-09-19T10:29:49;17.60;99.90
6379;DHT22;3222;48.858;10.128;2023-09-19T10:32:20;17.60;99.90
6379;DHT22;3222;48.858;10.128;2023-09-19T10:34:47;17.60;99.90
6379;DHT22;3222;48.858;10.128;2023-09-19T10:37:16;17.60;99.90
6379;DHT22;3222;48.858;10.128;2023-09-19T10:39:46;17.70;99.90
6379;DHT22;3222;48.858;10.128;2023-09-19T10:42:16;17.90;99.90
6379;DHT22;3222;48.858;10.128;2023-09-19T10:44:45;17.90;99.90
6379;DHT22;3222;48.858;10.128;2023-09-19T10:47:13;17.90;99.90
6379;DHT22;3222;48.858;10.128;2023-09-19T10:49:46;18.00;99.90
6379;DHT22;3222;48.858;10.128;2023-09-19T10:52:14;17.90;99.90
6379;DHT22;3222;48.858;10.128;2023-09-19T10:54:47;17.90;99.90
6379;DHT22;3222;48.858;10.128;2023-09-19T10:57:23;18.10;99.90
6379;DHT22;3222;48.858;10.128;2023-09-19T11:00:09;18.10;99.90
6379;DHT22;3222;48.858;10.128;2023-09-19T11:03:16;18.10;99.90
6379;DHT22;3222;48.858;10.128;2023-09-19T11:06:08;18.10;99.90
6379;DHT22;3222;48.858;10.128;2023-09-19T11:14:29;18.20;99.90
6379;DHT22;3222;48.858;10.128;2023-09-19T11:30:35;18.30;99.90
6379;DHT22;3222;48.858;10.128;2023-09-19T11:33:22;18.40;99.90
6379;DHT22;3222;48.858;10.128;2023-09-19T11:36:09;18.40;99.90
6379;DHT22;3222;48.858;10.128;2023-09-19T11:41:39;18.50;99.90
6379;DHT22;3222;48.858;10.128;2023-09-19T11:46:33;18.50;99.90
6379;DHT22;3222;48.858;10.128;2023-09-19T11:49:09;18.60;99.90
6379;DHT22;3222;48.858;10.128;2023-09-19T11:51:45;18.60;99.90
6379;DHT22;3222;48.858;10.128;2023-09-19T11:54:12;18.70;99.90
6379;DHT22;3222;48.858;10.128;2023-09-19T11:56:48;18.70;99.90
6379;DHT22;3222;48.858;10.128;2023-09-19T11:59:26;18.70;99.90
6379;DHT22;3222;48.858;10.128;2023-09-19T12:01:57;18.70;99.90
6379;DHT22;3222;48.858;10.128;2023-09-19T12:04:37;18.80;99.90
6379;DHT22;3222;48.858;10.128;2023-09-19T12:07:07;18.90;99.90
6379;DHT22;3222;48.858;10.128;2023-09-19T12:09:39;19.00;99.90
6379;DHT22;3222;48.858;10.128;2023-09-19T12:12:10;18.90;99.90
6379;DHT22;3222;48.858;10.128;2023-09-19T12:14:38;18.90;99.90
6379;DHT22;3222;48.858;10.128;2023-09-19T12:17:05;18.90;99.90
6379;DHT22;3222;48.858;10.128;2023-09-19T12:19:30;19.00;99.90
6379;DHT22;3222;48.858;10.128;2023-09-19T12:21:57;19.00;99.90
6379;DHT22;3222;48.858;10.128;2023-09-19T12:24:26;19.00;99.90
6379;DHT22;3222;48.858;10.128;2023-09-19T12:27:00;19.10;99.90
6379;DHT22;3222;48.858;10.128;2023-09-19T12:29:30;19.20;99.90
6379;DHT22;3222;48.858;10.128;2023-09-19T12:31:58;19.30;99.90
6379;DHT22;3222;48.858;10.128;2023-09-19T12:34:25;19.30;99.90
6379;DHT22;3222;48.858;10.128;2023-09-19T12:37:19;19.40;99.90
6379;DHT22;3222;48.858;10.128;2023-09-19T12:39:49;19.50;99.90
6379;DHT22;3222;48.858;10.128;2023-09-19T12:42:22;19.40;99.90
6379;DHT22;3222;48.858;10.128;2023-09-19T12:44:50;19.50;99.90
6379;DHT22;3222;48.858;10.128;2023-09-19T12:47:25;19.50;99.90
6379;DHT22;3222;48.858;10.128;2023-09-19T12:50:10;19.60;99.90
6379;DHT22;3222;48.858;10.128;2023-09-19T12:52:50;19.60;99.90
6379;DHT22;3222;48.858;10.128;2023-09-19T12:55:29;19.60;99.90
6379;DHT22;3222;48.858;10.128;2023-09-19T13:00:36;19.60;99.90
6379;DHT22;3222;48.858;10.128;2023-09-19T13:03:26;19.60;99.90
6379;DHT22;3222;48.858;10.128;2023-09-19T13:06:03;19.60;99.90
6379;DHT22;3222;48.858;10.128;2023-09-19T13:08:35;19.50;99.90
6379;DHT22;3222;48.858;10.128;2023-09-19T13:11:08;19.50;99.90
6379;DHT22;3222;48.858;10.128;2023-09-19T13:13:46;19.50;99.90
6379;DHT22;3222;48.858;10.128;2023-09-19T13:16:19;19.50;99.90
6379;DHT22;3222;48.858;10.128;2023-09-19T13:18:49;19.50;99.90
6379;DHT22;3222;48.858;10.128;2023-09-19T13:21:32;19.60;99.90
6379;DHT22;3222;48.858;10.128;2023-09-19T13:24:22;19.60;99.90
6379;DHT22;3222;48.858;10.128;2023-09-19T13:26:51;19.70;99.90
6379;DHT22;3222;48.858;10.128;2023-09-19T13:29:19;19.80;99.90
6379;DHT22;3222;48.858;10.128;2023-09-19T13:31:49;20.00;99.90
6379;DHT22;3222;48.858;10.128;2023-09-19T13:34:18;20.10;99.90
6379;DHT22;3222;48.858;10.128;2023-09-19T13:36:44;20.20;99.90
6379;DHT22;3222;48.858;10.128;2023-09-19T13:39:17;20.10;99.90
6379;DHT22;3222;48.858;10.128;2023-09-19T13:41:47;20.10;99.90
6379;DHT22;3222;48.858;10.128;2023-09-19T13:44:13;20.20;99.90
6379;DHT22;3222;48.858;10.128;2023-09-19T13:46:39;20.30;99.90
6379;DHT22;3222;48.858;10.128;2023-09-19T13:49:06;20.20;99.90
6379;DHT22;3222;48.858;10.128;2023-09-19T13:51:32;20.30;99.90
6379;DHT22;3222;48.858;10.128;2023-09-19T13:53:58;20.30;99.90
6379;DHT22;3222;48.858;10.128;2023-09-19T13:56:25;20.40;99.90
6379;DHT22;3222;48.858;10.128;2023-09-19T13:58:56;20.50;99.90
6379;DHT22;3222;48.858;10.128;2023-09-19T14:01:22;20.50;99.90
6379;DHT22;3222;48.858;10.128;2023-09-19T14:03:48;20.50;99.90
6379;DHT22;3222;48.858;10.128;2023-09-19T14:06:16;20.50;99.90
6379;DHT22;3222;48.858;10.128;2023-09-19T14:08:42;20.50;99.90
6379;DHT22;3222;48.858;10.128;2023-09-19T14:11:08;20.70;99.90
6379;DHT22;3222;48.858;10.128;2023-09-19T14:13:34;20.70;99.90
6379;DHT22;3222;48.858;10.128;2023-09-19T14:16:18;20.80;99.90
6379;DHT22;3222;48.858;10.128;2023-09-19T14:18:45;20.90;99.90
6379;DHT22;3222;48.858;10.128;2023-09-19T14:21:11;20.90;99.90
6379;DHT22;3222;48.858;10.128;2023-09-19T14:23:38;21.10;99.90
6379;DHT22;3222;48.858;10.128;2023-09-19T14:26:04;21.00;99.90
6379;DHT22;3222;48.858;10.128;2023-09-19T14:28:31;21.00;99.90
6379;DHT22;3222;48.858;10.128;2023-09-19T14:31:04;21.10;99.90
6379;DHT22;3222;48.858;10.128;2023-09-19T14:33:30;21.10;99.90
6379;DHT22;3222;48.858;10.128;2023-09-19T14:35:56;21.10;99.90
6379;DHT22;3222;48.858;10.128;2023-09-19T14:38:22;21.20;99.90
6379;DHT22;3222;48.858;10.128;2023-09-19T14:40:48;21.30;99.90
6379;DHT22;3222;48.858;10.128;2023-09-19T14:43:15;21.20;99.90
6379;DHT22;3222;48.858;10.128;2023-09-19T14:45:41;21.30;99.90
6379;DHT22;3222;48.858;10.128;2023-09-19T14:48:07;21.30;99.90
6379;DHT22;3222;48.858;10.128;2023-09-19T14:50:33;21.30;99.90
6379;DHT22;3222;48.858;10.128;2023-09-19T14:52:58;21.20;99.90
6379;DHT22;3222;48.858;10.128;2023-09-19T14:55:27;21.20;99.90
6379;DHT22;3222;48.858;10.128;2023-09-19T14:57:54;21.20;99.90
6379;DHT22;3222;48.858;10.128;2023-09-19T15:00:22;21.20;99.90
6379;DHT22;3222;48.858;10.128;2023-09-19T15:02:49;21.10;99.90
6379;DHT22;3222;48.858;10.128;2023-09-19T15:05:16;21.10;99.90
6379;DHT22;3222;48.858;10.128;2023-09-19T15:07:42;21.10;99.90
6379;DHT22;3222;48.858;10.128;2023-09-19T15:10:08;21.10;99.90
6379;DHT22;3222;48.858;10.128;2023-09-19T15:12:36;21.10;99.90
6379;DHT22;3222;48.858;10.128;2023-09-19T15:15:04;21.10;99.90
6379;DHT22;3222;48.858;10.128;2023-09-19T15:17:32;21.00;99.90
6379;DHT22;3222;48.858;10.128;2023-09-19T15:19:58;20.90;99.90
6379;DHT22;3222;48.858;10.128;2023-09-19T15:22:23;21.00;99.90
6379;DHT22;3222;48.858;10.128;2023-09-19T15:24:50;20.90;99.90
6379;DHT22;3222;48.858;10.128;2023-09-19T15:27:17;20.80;99.90
6379;DHT22;3222;48.858;10.128;2023-09-19T15:29:45;20.80;99.90
6379;DHT22;3222;48.858;10.128;2023-09-19T15:32:11;20.70;99.90
6379;DHT22;3222;48.858;10.128;2023-09-19T15:34:37;20.70;99.90
6379;DHT22;3222;48.858;10.128;2023-09-19T15:37:03;20.70;99.90
6379;DHT22;3222;48.858;10.128;2023-09-19T15:39:31;20.60;99.90
6379;DHT22;3222;48.858;10.128;2023-09-19T15:42:00;20.50;99.90
6379;DHT22;3222;48.858;10.128;2023-09-19T15:44:25;20.40;99.90
6379;DHT22;3222;48.858;10.128;2023-09-19T15:46:54;20.40;99.90
6379;DHT22;3222;48.858;10.128;2023-09-19T15:49:20;20.40;99.90
6379;DHT22;3222;48.858;10.128;2023-09-19T15:51:46;20.40;99.90
6379;DHT22;3222;48.858;10.128;2023-09-19T15:54:15;20.30;99.90
6379;DHT22;3222;48.858;10.128;2023-09-19T15:56:45;20.30;99.90
6379;DHT22;3222;48.858;10.128;2023-09-19T15:59:11;20.20;99.90
6379;DHT22;3222;48.858;10.128;2023-09-19T16:01:44;20.20;99.90
6379;DHT22;3222;48.858;10.128;2023-09-19T16:04:10;20.30;99.90
6379;DHT22;3222;48.858;10.128;2023-09-19T16:06:37;20.10;99.90
6379;DHT22;3222;48.858;10.128;2023-09-19T16:09:04;20.10;99.90
6379;DHT22;3222;48.858;10.128;2023-09-19T16:11:34;20.10;99.90
6379;DHT22;3222;48.858;10.128;2023-09-19T16:14:00;20.10;99.90
6379;DHT22;3222;48.858;10.128;2023-09-19T16:16:28;20.10;99.90
6379;DHT22;3222;48.858;10.128;2023-09-19T16:18:58;20.00;99.90
6379;DHT22;3222;48.858;10.128;2023-09-19T16:21:27;19.90;99.90
6379;DHT22;3222;48.858;10.128;2023-09-19T16:23:53;19.90;99.90
6379;DHT22;3222;48.858;10.128;2023-09-19T16:26:20;19.90;99.90
6379;DHT22;3222;48.858;10.128;2023-09-19T16:28:47;19.90;99.90
6379;DHT22;3222;48.858;10.128;2023-09-19T16:31:13;19.80;99.90
6379;DHT22;3222;48.858;10.128;2023-09-19T16:33:40;19.80;99.90
6379;DHT22;3222;48.858;10.128;2023-09-19T16:36:09;19.80;99.90
6379;DHT22;3222;48.858;10.128;2023-09-19T16:38:35;19.80;99.90
6379;DHT22;3222;48.858;10.128;2023-09-19T16:41:02;19.70;99.90
6379;DHT22;3222;48.858;10.128;2023-09-19T16:43:30;19.70;99.90
6379;DHT22;3222;48.858;10.128;2023-09-19T16:46:03;19.50;99.90
6379;DHT22;3222;48.858;10.128;2023-09-19T16:48:30;19.50;99.90
6379;DHT22;3222;48.858;10.128;2023-09-19T16:51:00;19.40;99.90
6379;DHT22;3222;48.858;10.128;2023-09-19T16:53:29;19.40;99.90